createdAt,value
2018-07-17T00:00:09.977Z,19.50
2018-07-17T00:04:13.448Z,19.40
2018-07-17T00:08:16.832Z,19.30
2018-07-17T00:12:20.182Z,19.20
2018-07-17T00:16:23.560Z,19.10
2018-07-17T00:20:26.912Z,19.10
2018-07-17T00:24:30.236Z,19.00
2018-07-17T00:28:33.589Z,18.90
2018-07-17T00:32:36.946Z,18.90
2018-07-17T00:36:40.304Z,18.80
2018-07-17T00:40:43.677Z,18.70
2018-07-17T00:44:47.022Z,18.70
2018-07-17T00:48:51.146Z,18.60
2018-07-17T00:52:54.535Z,18.60
2018-07-17T00:56:57.900Z,18.50
2018-07-17T12:35:49.060Z,18.40
2018-07-17T12:39:52.531Z,33.40
2018-07-17T12:43:55.850Z,33.20
2018-07-17T12:48:00.258Z,33.20
2018-07-17T12:52:03.636Z,33.20
2018-07-17T12:56:07.101Z,33.30
2018-07-17T13:00:10.685Z,33.20
2018-07-17T13:04:14.051Z,33.30
2018-07-17T13:08:17.388Z,33.30
2018-07-17T13:12:22.168Z,33.40
2018-07-17T13:16:27.386Z,33.40
2018-07-17T13:20:32.126Z,33.30
2018-07-17T13:24:37.219Z,33.20
2018-07-17T13:28:42.799Z,33.10
2018-07-17T13:32:46.988Z,33.00
2018-07-17T13:36:52.246Z,32.90
2018-07-17T13:40:56.284Z,32.80
2018-07-17T13:45:00.880Z,32.70
2018-07-17T13:49:05.124Z,32.60
2018-07-17T13:53:09.027Z,32.50
2018-07-17T13:57:12.375Z,32.40
2018-07-17T14:01:15.825Z,32.30
2018-07-17T14:05:20.999Z,32.30
2018-07-17T14:09:24.332Z,32.40
2018-07-17T14:13:27.676Z,32.60
2018-07-17T14:17:31.420Z,32.80
2018-07-17T14:21:34.727Z,32.90
2018-07-17T14:25:38.063Z,32.90
2018-07-17T14:29:41.444Z,32.90
2018-07-17T14:33:45.409Z,32.70
2018-07-17T14:37:48.741Z,32.60
2018-07-17T14:41:52.184Z,32.60
2018-07-17T14:45:55.531Z,32.50
2018-07-17T14:50:00.019Z,32.40
2018-07-17T14:54:03.432Z,32.30
2018-07-17T14:58:06.958Z,32.20
2018-07-17T15:02:10.941Z,32.00
2018-07-17T15:06:14.271Z,31.90
2018-07-17T15:10:17.841Z,31.80
2018-07-17T15:14:21.223Z,31.80
2018-07-17T15:18:24.589Z,31.90
2018-07-17T15:22:28.066Z,31.90
2018-07-17T15:26:31.367Z,32.00
2018-07-17T15:30:34.744Z,32.00
2018-07-17T15:34:38.107Z,32.10
2018-07-17T15:38:41.440Z,32.10
2018-07-17T15:42:44.833Z,32.10
2018-07-17T15:46:48.156Z,32.00
2018-07-17T15:50:51.480Z,32.00
2018-07-17T15:54:55.091Z,32.00
2018-07-17T15:58:58.515Z,31.90
2018-07-17T16:03:01.876Z,31.90
2018-07-17T16:07:05.262Z,31.80
2018-07-17T16:11:08.740Z,31.90
2018-07-17T16:15:12.115Z,31.80
2018-07-17T16:19:15.468Z,31.80
2018-07-17T16:23:18.791Z,31.90
2018-07-17T16:27:22.133Z,32.00
2018-07-17T16:31:25.465Z,32.10
2018-07-17T16:35:28.829Z,32.20
2018-07-17T16:39:32.164Z,32.30
2018-07-17T16:43:35.564Z,32.30
2018-07-17T16:47:38.987Z,32.20
2018-07-17T16:51:42.875Z,32.00
2018-07-17T16:55:46.197Z,31.80
2018-07-17T16:59:49.612Z,31.60
2018-07-17T17:03:53.135Z,31.50
2018-07-17T17:07:56.632Z,31.10
2018-07-17T17:11:59.960Z,30.90
2018-07-17T17:16:03.321Z,30.60
2018-07-17T17:20:06.945Z,30.40
2018-07-17T17:24:10.337Z,30.10
2018-07-17T17:28:13.647Z,29.90
2018-07-17T17:32:16.969Z,29.70
2018-07-17T17:36:20.420Z,29.50
2018-07-17T17:40:23.764Z,29.30
2018-07-17T17:44:27.088Z,29.20
2018-07-17T17:48:30.438Z,29.10
2018-07-17T17:52:33.736Z,28.90
2018-07-17T17:56:37.065Z,28.80
2018-07-17T18:00:40.382Z,28.70
2018-07-17T18:04:43.720Z,28.60
2018-07-17T18:08:47.060Z,28.50
2018-07-17T18:12:50.379Z,28.40
2018-07-17T18:20:56.804Z,28.30
2018-07-17T18:25:00.132Z,28.20
2018-07-17T18:29:03.524Z,28.10
2018-07-17T18:33:06.851Z,28.00
2018-07-17T18:37:10.192Z,27.90
2018-07-17T18:45:16.636Z,27.70
2018-07-17T18:49:19.979Z,27.50
2018-07-17T18:53:23.326Z,27.40
2018-07-17T18:57:26.668Z,27.30
2018-07-17T19:01:30.010Z,27.20
2018-07-17T19:05:33.359Z,27.10
2018-07-17T19:09:36.697Z,27.00
2018-07-17T19:13:40.771Z,26.80
2018-07-17T19:17:44.171Z,26.70
2018-07-17T19:21:47.553Z,26.60
2018-07-17T19:25:50.896Z,26.50
2018-07-17T19:29:54.218Z,26.40
2018-07-17T19:33:57.565Z,26.30
2018-07-17T19:38:01.747Z,26.10
2018-07-17T19:42:05.135Z,26.10
2018-07-17T19:46:08.579Z,26.00
2018-07-17T19:50:11.883Z,25.90
2018-07-17T19:54:15.356Z,25.80
2018-07-17T19:58:18.676Z,25.70
2018-07-17T20:02:21.999Z,25.60
2018-07-17T20:10:28.427Z,25.40
2018-07-17T20:14:31.772Z,25.30
2018-07-17T20:18:35.095Z,25.10
2018-07-17T20:22:38.912Z,25.00
2018-07-17T20:26:42.266Z,25.00
2018-07-17T20:30:45.620Z,24.80
2018-07-17T20:34:48.961Z,24.70
2018-07-17T20:38:53.569Z,24.70
2018-07-17T20:42:56.875Z,24.50
2018-07-17T20:47:00.215Z,24.40
2018-07-17T20:51:03.706Z,24.30
2018-07-17T20:55:13.659Z,24.20
2018-07-17T20:59:16.988Z,24.10
2018-07-17T21:03:20.324Z,24.00
2018-07-17T21:07:23.679Z,23.90
2018-07-17T21:11:27.012Z,23.80
2018-07-17T21:15:30.355Z,23.70
2018-07-17T21:19:33.708Z,23.50
2018-07-17T21:23:37.028Z,23.50
2018-07-17T21:27:40.426Z,23.40
2018-07-17T21:31:44.023Z,23.20
2018-07-17T21:35:47.356Z,23.20
2018-07-17T21:39:50.704Z,23.10
2018-07-17T21:43:54.031Z,23.00
2018-07-17T21:47:57.365Z,23.00
2018-07-17T21:52:00.776Z,22.90
2018-07-17T21:56:04.182Z,22.80
2018-07-17T22:00:09.200Z,22.70
2018-07-17T22:04:12.539Z,22.60
2018-07-17T22:08:15.892Z,22.50
2018-07-17T22:12:19.228Z,22.50
2018-07-17T22:16:22.588Z,22.40
2018-07-17T22:20:25.931Z,22.30
2018-07-17T22:24:29.256Z,22.20
2018-07-17T22:28:32.615Z,22.20
2018-07-17T22:32:35.959Z,22.10
2018-07-17T22:36:39.319Z,22.10
2018-07-17T22:40:45.069Z,22.00
2018-07-17T22:44:48.446Z,21.90
2018-07-17T22:48:51.793Z,21.90
2018-07-17T22:52:55.157Z,21.90
2018-07-17T22:56:58.688Z,21.80
2018-07-17T23:01:02.207Z,21.80
2018-07-17T23:05:05.607Z,21.70
2018-07-17T23:09:10.096Z,21.70
2018-07-17T23:13:13.500Z,21.60
2018-07-17T23:17:16.849Z,21.60
2018-07-17T23:21:20.308Z,21.50
2018-07-17T23:25:24.824Z,21.40
2018-07-17T23:29:28.185Z,21.30
2018-07-17T23:33:31.531Z,21.30
2018-07-17T23:37:34.875Z,21.30
2018-07-17T23:41:38.220Z,21.20
2018-07-17T23:45:41.576Z,21.10
2018-07-17T23:49:44.901Z,21.00
2018-07-17T23:57:51.315Z,20.90
